sensor_id;sensor_type;location;lat;lon;timestamp;temperature;humidity
37268;DHT22;23154;52.542;13.362;2022-12-10T00:01:58;-1.60;99.90
37268;DHT22;23154;52.542;13.362;2022-12-10T00:04:24;-1.70;99.90
37268;DHT22;23154;52.542;13.362;2022-12-10T00:06:49;-1.60;99.90
37268;DHT22;23154;52.542;13.362;2022-12-10T00:09:18;-1.60;99.90
37268;DHT22;23154;52.542;13.362;2022-12-10T00:11:44;-1.60;99.90
37268;DHT22;23154;52.542;13.362;2022-12-10T00:14:10;-1.60;99.90
37268;DHT22;23154;52.542;13.362;2022-12-10T00:16:36;-1.70;99.90
37268;DHT22;23154;52.542;13.362;2022-12-10T00:19:02;-1.70;99.90
37268;DHT22;23154;52.542;13.362;2022-12-10T00:21:29;-1.70;99.90
37268;DHT22;23154;52.542;13.362;2022-12-10T00:23:55;-1.60;99.90
37268;DHT22;23154;52.542;13.362;2022-12-10T00:26:21;-1.60;99.90
37268;DHT22;23154;52.542;13.362;2022-12-10T00:28:47;-1.70;99.90
37268;DHT22;23154;52.542;13.362;2022-12-10T00:31:14;-1.70;99.90
37268;DHT22;23154;52.542;13.362;2022-12-10T00:33:40;-1.70;99.90
37268;DHT22;23154;52.542;13.362;2022-12-10T00:36:08;-1.70;99.90
37268;DHT22;23154;52.542;13.362;2022-12-10T00:38:33;-1.70;99.90
37268;DHT22;23154;52.542;13.362;2022-12-10T00:40:59;-1.60;99.90
37268;DHT22;23154;52.542;13.362;2022-12-10T00:43:25;-1.70;99.90
37268;DHT22;23154;52.542;13.362;2022-12-10T00:45:51;-1.70;99.90
37268;DHT22;23154;52.542;13.362;2022-12-10T00:48:16;-1.80;99.90
37268;DHT22;23154;52.542;13.362;2022-12-10T00:50:42;-1.90;99.90
37268;DHT22;23154;52.542;13.362;2022-12-10T00:53:07;-1.90;99.90
37268;DHT22;23154;52.542;13.362;2022-12-10T00:55:33;-1.90;99.90
37268;DHT22;23154;52.542;13.362;2022-12-10T00:57:58;-1.80;99.90
37268;DHT22;23154;52.542;13.362;2022-12-10T01:00:24;-1.80;99.90
37268;DHT22;23154;52.542;13.362;2022-12-10T01:02:49;-1.90;99.90
37268;DHT22;23154;52.542;13.362;2022-12-10T01:05:15;-2.00;99.90
37268;DHT22;23154;52.542;13.362;2022-12-10T01:07:41;-2.00;99.90
37268;DHT22;23154;52.542;13.362;2022-12-10T01:10:06;-2.00;99.90
37268;DHT22;23154;52.542;13.362;2022-12-10T01:12:32;-2.00;99.90
37268;DHT22;23154;52.542;13.362;2022-12-10T01:14:57;-2.10;99.90
37268;DHT22;23154;52.542;13.362;2022-12-10T01:17:23;-2.10;99.90
37268;DHT22;23154;52.542;13.362;2022-12-10T01:19:48;-2.10;99.90
37268;DHT22;23154;52.542;13.362;2022-12-10T01:22:14;-2.10;99.90
37268;DHT22;23154;52.542;13.362;2022-12-10T01:24:39;-2.10;99.90
37268;DHT22;23154;52.542;13.362;2022-12-10T01:27:05;-2.10;99.90
37268;DHT22;23154;52.542;13.362;2022-12-10T01:29:31;-2.20;99.90
37268;DHT22;23154;52.542;13.362;2022-12-10T01:31:57;-2.20;99.90
37268;DHT22;23154;52.542;13.362;2022-12-10T01:34:23;-2.30;99.90
37268;DHT22;23154;52.542;13.362;2022-12-10T01:36:50;-2.40;99.90
37268;DHT22;23154;52.542;13.362;2022-12-10T01:39:17;-2.40;99.90
37268;DHT22;23154;52.542;13.362;2022-12-10T01:41:47;-2.30;99.90
37268;DHT22;23154;52.542;13.362;2022-12-10T01:46:39;-2.40;99.90
37268;DHT22;23154;52.542;13.362;2022-12-10T01:49:09;-2.40;99.90
37268;DHT22;23154;52.542;13.362;2022-12-10T01:51:36;-2.50;99.90
37268;DHT22;23154;52.542;13.362;2022-12-10T01:54:04;-2.60;99.90
37268;DHT22;23154;52.542;13.362;2022-12-10T01:56:29;-2.50;99.90
37268;DHT22;23154;52.542;13.362;2022-12-10T01:58:56;-2.50;99.90
37268;DHT22;23154;52.542;13.362;2022-12-10T02:01:31;-2.50;99.90
37268;DHT22;23154;52.542;13.362;2022-12-10T02:04:08;-2.50;99.90
37268;DHT22;23154;52.542;13.362;2022-12-10T02:06:46;-2.50;99.90
37268;DHT22;23154;52.542;13.362;2022-12-10T02:09:18;-2.50;99.90
37268;DHT22;23154;52.542;13.362;2022-12-10T02:11:51;-2.60;99.90
37268;DHT22;23154;52.542;13.362;2022-12-10T02:14:23;-2.60;99.90
37268;DHT22;23154;52.542;13.362;2022-12-10T02:16:56;-2.60;99.90
37268;DHT22;23154;52.542;13.362;2022-12-10T02:21:52;-2.60;99.90
37268;DHT22;23154;52.542;13.362;2022-12-10T02:24:21;-2.60;99.90
37268;DHT22;23154;52.542;13.362;2022-12-10T02:26:57;-2.70;99.90
37268;DHT22;23154;52.542;13.362;2022-12-10T02:29:25;-2.60;99.90
37268;DHT22;23154;52.542;13.362;2022-12-10T02:34:26;-2.60;99.90
37268;DHT22;23154;52.542;13.362;2022-12-10T02:36:56;-2.70;99.90
37268;DHT22;23154;52.542;13.362;2022-12-10T02:39:24;-2.60;99.90
37268;DHT22;23154;52.542;13.362;2022-12-10T02:41:52;-2.50;99.90
37268;DHT22;23154;52.542;13.362;2022-12-10T02:44:18;-2.50;99.90
37268;DHT22;23154;52.542;13.362;2022-12-10T02:46:45;-2.50;99.90
37268;DHT22;23154;52.542;13.362;2022-12-10T02:49:12;-2.50;99.90
37268;DHT22;23154;52.542;13.362;2022-12-10T02:51:39;-2.50;99.90
37268;DHT22;23154;52.542;13.362;2022-12-10T02:54:05;-2.50;99.90
37268;DHT22;23154;52.542;13.362;2022-12-10T03:01:58;-2.50;99.90
37268;DHT22;23154;52.542;13.362;2022-12-10T03:06:58;-2.40;99.90
37268;DHT22;23154;52.542;13.362;2022-12-10T03:09:27;-2.40;99.90
37268;DHT22;23154;52.542;13.362;2022-12-10T03:11:57;-2.40;99.90
37268;DHT22;23154;52.542;13.362;2022-12-10T03:14:25;-2.50;99.90
37268;DHT22;23154;52.542;13.362;2022-12-10T03:16:53;-2.40;99.90
37268;DHT22;23154;52.542;13.362;2022-12-10T03:19:20;-2.40;99.90
37268;DHT22;23154;52.542;13.362;2022-12-10T03:21:47;-2.40;99.90
37268;DHT22;23154;52.542;13.362;2022-12-10T03:24:13;-2.30;99.90
37268;DHT22;23154;52.542;13.362;2022-12-10T03:26:40;-2.30;99.90
37268;DHT22;23154;52.542;13.362;2022-12-10T03:29:10;-2.30;99.90
37268;DHT22;23154;52.542;13.362;2022-12-10T03:31:39;-2.40;99.90
37268;DHT22;23154;52.542;13.362;2022-12-10T03:34:06;-2.40;99.90
37268;DHT22;23154;52.542;13.362;2022-12-10T03:36:32;-2.40;99.90
37268;DHT22;23154;52.542;13.362;2022-12-10T03:38:58;-2.40;99.90
37268;DHT22;23154;52.542;13.362;2022-12-10T03:41:24;-2.30;99.90
37268;DHT22;23154;52.542;13.362;2022-12-10T03:43:50;-2.40;99.90
37268;DHT22;23154;52.542;13.362;2022-12-10T03:46:16;-2.40;99.90
37268;DHT22;23154;52.542;13.362;2022-12-10T03:48:41;-2.40;99.90
37268;DHT22;23154;52.542;13.362;2022-12-10T03:51:07;-2.40;99.90
37268;DHT22;23154;52.542;13.362;2022-12-10T03:53:32;-2.40;99.90
37268;DHT22;23154;52.542;13.362;2022-12-10T03:55:58;-2.40;99.90
37268;DHT22;23154;52.542;13.362;2022-12-10T03:58:23;-2.40;99.90
37268;DHT22;23154;52.542;13.362;2022-12-10T04:00:49;-2.40;99.90
37268;DHT22;23154;52.542;13.362;2022-12-10T04:03:14;-2.40;99.90
37268;DHT22;23154;52.542;13.362;2022-12-10T04:05:40;-2.40;99.90
37268;DHT22;23154;52.542;13.362;2022-12-10T04:08:05;-2.40;99.90
37268;DHT22;23154;52.542;13.362;2022-12-10T04:10:34;-2.40;99.90
37268;DHT22;23154;52.542;13.362;2022-12-10T04:12:59;-2.30;99.90
37268;DHT22;23154;52.542;13.362;2022-12-10T04:15:44;-2.20;99.90
37268;DHT22;23154;52.542;13.362;2022-12-10T04:18:28;-2.10;99.90
37268;DHT22;23154;52.542;13.362;2022-12-10T04:20:53;-2.10;99.90
37268;DHT22;23154;52.542;13.362;2022-12-10T04:23:37;-2.00;99.90
37268;DHT22;23154;52.542;13.362;2022-12-10T04:26:21;-2.00;99.90
37268;DHT22;23154;52.542;13.362;2022-12-10T04:29:05;-1.90;99.90
37268;DHT22;23154;52.542;13.362;2022-12-10T04:31:32;-1.90;99.90
37268;DHT22;23154;52.542;13.362;2022-12-10T04:33:57;-1.90;99.90
37268;DHT22;23154;52.542;13.362;2022-12-10T04:36:23;-1.80;99.90
37268;DHT22;23154;52.542;13.362;2022-12-10T04:38:48;-1.80;99.90
37268;DHT22;23154;52.542;13.362;2022-12-10T04:41:14;-1.80;99.90
37268;DHT22;23154;52.542;13.362;2022-12-10T04:43:41;-1.80;99.90
37268;DHT22;23154;52.542;13.362;2022-12-10T04:46:06;-1.80;99.90
37268;DHT22;23154;52.542;13.362;2022-12-10T04:48:32;-1.70;99.90
37268;DHT22;23154;52.542;13.362;2022-12-10T04:50:57;-1.60;99.90
37268;DHT22;23154;52.542;13.362;2022-12-10T04:53:23;-1.60;99.90
37268;DHT22;23154;52.542;13.362;2022-12-10T04:55:48;-1.60;99.90
37268;DHT22;23154;52.542;13.362;2022-12-10T04:58:14;-1.50;99.90
37268;DHT22;23154;52.542;13.362;2022-12-10T05:00:39;-1.60;99.90
37268;DHT22;23154;52.542;13.362;2022-12-10T05:03:05;-1.50;99.90
37268;DHT22;23154;52.542;13.362;2022-12-10T05:05:30;-1.50;99.90
37268;DHT22;23154;52.542;13.362;2022-12-10T05:07:58;-1.50;99.90
37268;DHT22;23154;52.542;13.362;2022-12-10T05:10:23;-1.60;99.90
37268;DHT22;23154;52.542;13.362;2022-12-10T05:12:49;-1.50;99.90
37268;DHT22;23154;52.542;13.362;2022-12-10T05:15:14;-1.50;99.90
37268;DHT22;23154;52.542;13.362;2022-12-10T05:17:40;-1.50;99.90
37268;DHT22;23154;52.542;13.362;2022-12-10T05:20:05;-1.40;99.90
37268;DHT22;23154;52.542;13.362;2022-12-10T05:22:31;-1.40;99.90
37268;DHT22;23154;52.542;13.362;2022-12-10T05:25:26;-1.40;99.90
37268;DHT22;23154;52.542;13.362;2022-12-10T05:27:51;-1.40;99.90
37268;DHT22;23154;52.542;13.362;2022-12-10T05:30:17;-1.30;99.90
37268;DHT22;23154;52.542;13.362;2022-12-10T05:32:43;-1.30;99.90
37268;DHT22;23154;52.542;13.362;2022-12-10T05:35:09;-1.30;99.90
37268;DHT22;23154;52.542;13.362;2022-12-10T05:37:34;-1.30;99.90
37268;DHT22;23154;52.542;13.362;2022-12-10T05:40:00;-1.40;99.90
37268;DHT22;23154;52.542;13.362;2022-12-10T05:42:25;-1.40;99.90
37268;DHT22;23154;52.542;13.362;2022-12-10T05:44:51;-1.40;99.90
37268;DHT22;23154;52.542;13.362;2022-12-10T05:47:16;-1.40;99.90
37268;DHT22;23154;52.542;13.362;2022-12-10T05:49:42;-1.30;99.90
37268;DHT22;23154;52.542;13.362;2022-12-10T05:52:07;-1.30;99.90
37268;DHT22;23154;52.542;13.362;2022-12-10T05:54:33;-1.30;99.90
37268;DHT22;23154;52.542;13.362;2022-12-10T05:56:59;-1.40;99.90
37268;DHT22;23154;52.542;13.362;2022-12-10T05:59:24;-1.40;99.90
37268;DHT22;23154;52.542;13.362;2022-12-10T06:01:50;-1.40;99.90
37268;DHT22;23154;52.542;13.362;2022-12-10T06:04:15;-1.30;99.90
37268;DHT22;23154;52.542;13.362;2022-12-10T06:06:41;-1.40;99.90
37268;DHT22;23154;52.542;13.362;2022-12-10T06:09:07;-1.50;99.90
37268;DHT22;23154;52.542;13.362;2022-12-10T06:11:35;-1.40;99.90
37268;DHT22;23154;52.542;13.362;2022-12-10T06:14:01;-1.30;99.90
37268;DHT22;23154;52.542;13.362;2022-12-10T06:16:27;-1.30;99.90
37268;DHT22;23154;52.542;13.362;2022-12-10T06:18:53;-1.30;99.90
37268;DHT22;23154;52.542;13.362;2022-12-10T06:21:19;-1.30;99.90
37268;DHT22;23154;52.542;13.362;2022-12-10T06:23:45;-1.30;99.90
37268;DHT22;23154;52.542;13.362;2022-12-10T06:26:12;-1.30;99.90
37268;DHT22;23154;52.542;13.362;2022-12-10T06:28:37;-1.30;99.90
37268;DHT22;23154;52.542;13.362;2022-12-10T06:31:03;-1.40;99.90
37268;DHT22;23154;52.542;13.362;2022-12-10T06:33:29;-1.40;99.90
37268;DHT22;23154;52.542;13.362;2022-12-10T06:35:54;-1.40;99.90
37268;DHT22;23154;52.542;13.362;2022-12-10T06:38:20;-1.30;99.90
37268;DHT22;23154;52.542;13.362;2022-12-10T06:40:45;-1.40;99.90
37268;DHT22;23154;52.542;13.362;2022-12-10T06:43:11;-1.30;99.90
37268;DHT22;23154;52.542;13.362;2022-12-10T06:45:40;-1.30;99.90
37268;DHT22;23154;52.542;13.362;2022-12-10T06:48:06;-1.40;99.90
37268;DHT22;23154;52.542;13.362;2022-12-10T06:50:31;-1.40;99.90
37268;DHT22;23154;52.542;13.362;2022-12-10T06:52:57;-1.30;99.90
37268;DHT22;23154;52.542;13.362;2022-12-10T06:55:22;-1.30;99.90
37268;DHT22;23154;52.542;13.362;2022-12-10T06:57:51;-1.40;99.90
37268;DHT22;23154;52.542;13.362;2022-12-10T07:00:17;-1.40;99.90
37268;DHT22;23154;52.542;13.362;2022-12-10T07:02:43;-1.50;99.90
37268;DHT22;23154;52.542;13.362;2022-12-10T07:05:08;-1.50;99.90
37268;DHT22;23154;52.542;13.362;2022-12-10T07:07:35;-1.50;99.90
37268;DHT22;23154;52.542;13.362;2022-12-10T07:10:00;-1.40;99.90
37268;DHT22;23154;52.542;13.362;2022-12-10T07:12:26;-1.50;99.90
37268;DHT22;23154;52.542;13.362;2022-12-10T07:14:52;-1.50;99.90
37268;DHT22;23154;52.542;13.362;2022-12-10T07:17:17;-1.60;99.90
37268;DHT22;23154;52.542;13.362;2022-12-10T07:19:43;-1.50;99.90
37268;DHT22;23154;52.542;13.362;2022-12-10T07:22:09;-1.40;99.90
37268;DHT22;23154;52.542;13.362;2022-12-10T07:24:35;-1.40;99.90
37268;DHT22;23154;52.542;13.362;2022-12-10T07:27:00;-1.60;99.90
37268;DHT22;23154;52.542;13.362;2022-12-10T07:29:26;-1.50;99.90
37268;DHT22;23154;52.542;13.362;2022-12-10T07:31:51;-1.50;99.90
37268;DHT22;23154;52.542;13.362;2022-12-10T07:34:17;-1.50;99.90
37268;DHT22;23154;52.542;13.362;2022-12-10T07:36:42;-1.40;99.90
37268;DHT22;23154;52.542;13.362;2022-12-10T07:39:09;-1.40;99.90
37268;DHT22;23154;52.542;13.362;2022-12-10T07:41:35;-1.40;99.90
37268;DHT22;23154;52.542;13.362;2022-12-10T07:44:01;-1.40;99.90
37268;DHT22;23154;52.542;13.362;2022-12-10T07:46:28;-1.30;99.90
37268;DHT22;23154;52.542;13.362;2022-12-10T07:48:54;-1.30;99.90
37268;DHT22;23154;52.542;13.362;2022-12-10T07:51:20;-1.30;99.90
37268;DHT22;23154;52.542;13.362;2022-12-10T07:53:47;-1.30;99.90
37268;DHT22;23154;52.542;13.362;2022-12-10T07:56:12;-1.20;99.90
37268;DHT22;23154;52.542;13.362;2022-12-10T07:58:41;-1.30;99.90
37268;DHT22;23154;52.542;13.362;2022-12-10T08:01:07;-1.40;99.90
37268;DHT22;23154;52.542;13.362;2022-12-10T08:03:32;-1.40;99.90
37268;DHT22;23154;52.542;13.362;2022-12-10T08:06:06;-1.30;99.90
37268;DHT22;23154;52.542;13.362;2022-12-10T08:08:32;-1.30;99.90
37268;DHT22;23154;52.542;13.362;2022-12-10T08:11:01;-1.30;99.90
37268;DHT22;23154;52.542;13.362;2022-12-10T08:13:27;-1.30;99.90
37268;DHT22;23154;52.542;13.362;2022-12-10T08:15:53;-1.30;99.90
37268;DHT22;23154;52.542;13.362;2022-12-10T08:18:19;-1.20;99.90
37268;DHT22;23154;52.542;13.362;2022-12-10T08:20:44;-1.20;99.90
37268;DHT22;23154;52.542;13.362;2022-12-10T08:23:10;-1.10;99.90
37268;DHT22;23154;52.542;13.362;2022-12-10T08:25:36;-1.10;99.90
37268;DHT22;23154;52.542;13.362;2022-12-10T08:28:01;-1.10;99.90
37268;DHT22;23154;52.542;13.362;2022-12-10T08:30:29;-1.20;99.90
37268;DHT22;23154;52.542;13.362;2022-12-10T08:32:54;-1.10;99.90
37268;DHT22;23154;52.542;13.362;2022-12-10T08:35:20;-1.00;99.90
37268;DHT22;23154;52.542;13.362;2022-12-10T08:37:45;-1.00;99.90
37268;DHT22;23154;52.542;13.362;2022-12-10T08:40:11;-1.00;99.90
37268;DHT22;23154;52.542;13.362;2022-12-10T08:42:36;-0.90;99.90
37268;DHT22;23154;52.542;13.362;2022-12-10T08:45:03;-0.80;99.90
37268;DHT22;23154;52.542;13.362;2022-12-10T08:47:29;-0.70;99.90
37268;DHT22;23154;52.542;13.362;2022-12-10T08:49:54;-0.70;99.90
37268;DHT22;23154;52.542;13.362;2022-12-10T08:52:20;-0.70;99.90
37268;DHT22;23154;52.542;13.362;2022-12-10T08:54:45;-0.70;99.90
37268;DHT22;23154;52.542;13.362;2022-12-10T08:57:11;-0.70;99.90
37268;DHT22;23154;52.542;13.362;2022-12-10T08:59:36;-0.70;99.90
37268;DHT22;23154;52.542;13.362;2022-12-10T09:02:02;-0.80;99.90
37268;DHT22;23154;52.542;13.362;2022-12-10T09:04:27;-0.80;99.90
37268;DHT22;23154;52.542;13.362;2022-12-10T09:06:53;-0.80;99.90
37268;DHT22;23154;52.542;13.362;2022-12-10T09:09:18;-0.80;99.90
37268;DHT22;23154;52.542;13.362;2022-12-10T09:11:44;-0.80;99.90
37268;DHT22;23154;52.542;13.362;2022-12-10T09:14:11;-0.70;99.90
37268;DHT22;23154;52.542;13.362;2022-12-10T09:16:36;-0.60;99.90
37268;DHT22;23154;52.542;13.362;2022-12-10T09:19:04;-0.70;99.90
37268;DHT22;23154;52.542;13.362;2022-12-10T09:21:30;-0.60;99.90
37268;DHT22;23154;52.542;13.362;2022-12-10T09:23:56;-0.50;99.90
37268;DHT22;23154;52.542;13.362;2022-12-10T09:26:22;-0.50;99.90
37268;DHT22;23154;52.542;13.362;2022-12-10T09:28:48;-0.40;99.90
37268;DHT22;23154;52.542;13.362;2022-12-10T09:31:14;-0.50;99.90
37268;DHT22;23154;52.542;13.362;2022-12-10T09:33:40;-0.40;99.90
37268;DHT22;23154;52.542;13.362;2022-12-10T09:36:06;-0.30;99.90
37268;DHT22;23154;52.542;13.362;2022-12-10T09:38:35;-0.30;99.90
37268;DHT22;23154;52.542;13.362;2022-12-10T09:46:21;-0.30;99.90
37268;DHT22;23154;52.542;13.362;2022-12-10T09:51:22;-0.30;99.90
37268;DHT22;23154;52.542;13.362;2022-12-10T09:53:48;-0.30;99.90
37268;DHT22;23154;52.542;13.362;2022-12-10T09:56:19;-0.20;99.90
37268;DHT22;23154;52.542;13.362;2022-12-10T09:58:46;-0.20;99.90
37268;DHT22;23154;52.542;13.362;2022-12-10T10:01:12;-0.20;99.90
37268;DHT22;23154;52.542;13.362;2022-12-10T10:03:40;-0.40;99.90
37268;DHT22;23154;52.542;13.362;2022-12-10T10:06:08;-0.10;99.90
37268;DHT22;23154;52.542;13.362;2022-12-10T10:08:39;0.00;99.90
37268;DHT22;23154;52.542;13.362;2022-12-10T10:11:08;0.00;99.90
37268;DHT22;23154;52.542;13.362;2022-12-10T10:13:38;0.10;99.90
37268;DHT22;23154;52.542;13.362;2022-12-10T10:16:18;0.20;99.90
37268;DHT22;23154;52.542;13.362;2022-12-10T10:21:20;0.20;99.90
37268;DHT22;23154;52.542;13.362;2022-12-10T10:23:47;0.10;99.90
37268;DHT22;23154;52.542;13.362;2022-12-10T10:26:12;0.00;99.90
37268;DHT22;23154;52.542;13.362;2022-12-10T10:28:38;0.00;99.90
37268;DHT22;23154;52.542;13.362;2022-12-10T10:31:08;-0.10;99.90
37268;DHT22;23154;52.542;13.362;2022-12-10T10:33:47;-0.10;99.90
37268;DHT22;23154;52.542;13.362;2022-12-10T10:36:12;-0.10;99.90
37268;DHT22;23154;52.542;13.362;2022-12-10T10:38:38;-0.20;99.90
37268;DHT22;23154;52.542;13.362;2022-12-10T10:41:03;-0.10;99.90
37268;DHT22;23154;52.542;13.362;2022-12-10T10:43:33;-0.10;99.90
37268;DHT22;23154;52.542;13.362;2022-12-10T10:46:00;0.00;99.90
37268;DHT22;23154;52.542;13.362;2022-12-10T10:48:26;0.00;99.90
37268;DHT22;23154;52.542;13.362;2022-12-10T10:50:53;0.00;99.90
37268;DHT22;23154;52.542;13.362;2022-12-10T10:53:33;-0.10;99.90
37268;DHT22;23154;52.542;13.362;2022-12-10T10:56:05;-0.20;99.90
37268;DHT22;23154;52.542;13.362;2022-12-10T10:58:32;-0.20;99.90
37268;DHT22;23154;52.542;13.362;2022-12-10T11:01:02;-0.10;99.90
37268;DHT22;23154;52.542;13.362;2022-12-10T11:03:28;-0.10;99.90
37268;DHT22;23154;52.542;13.362;2022-12-10T11:05:56;-0.10;99.90
37268;DHT22;23154;52.542;13.362;2022-12-10T11:08:21;-0.20;99.90
37268;DHT22;23154;52.542;13.362;2022-12-10T11:10:50;-0.20;99.90
37268;DHT22;23154;52.542;13.362;2022-12-10T11:13:23;-0.20;99.90
37268;DHT22;23154;52.542;13.362;2022-12-10T11:16:00;-0.10;99.90
37268;DHT22;23154;52.542;13.362;2022-12-10T11:18:30;-0.10;99.90
37268;DHT22;23154;52.542;13.362;2022-12-10T11:21:06;-0.10;99.90
37268;DHT22;23154;52.542;13.362;2022-12-10T11:23:42;-0.10;99.90
37268;DHT22;23154;52.542;13.362;2022-12-10T11:31:44;0.10;99.90
37268;DHT22;23154;52.542;13.362;2022-12-10T11:34:35;0.00;99.90
37268;DHT22;23154;52.542;13.362;2022-12-10T11:44:43;0.10;99.90
37268;DHT22;23154;52.542;13.362;2022-12-10T11:47:20;0.00;99.90
37268;DHT22;23154;52.542;13.362;2022-12-10T11:49:59;-0.10;99.90
37268;DHT22;23154;52.542;13.362;2022-12-10T11:55:02;-0.10;99.90
37268;DHT22;23154;52.542;13.362;2022-12-10T12:08:30;-0.20;99.90
37268;DHT22;23154;52.542;13.362;2022-12-10T12:10:30;-0.30;99.90
37268;DHT22;23154;52.542;13.362;2022-12-10T12:13:02;-0.30;99.90
37268;DHT22;23154;52.542;13.362;2022-12-10T12:21:03;-0.30;99.90
37268;DHT22;23154;52.542;13.362;2022-12-10T12:23:38;-0.30;99.90
37268;DHT22;23154;52.542;13.362;2022-12-10T12:26:10;-0.30;99.90
37268;DHT22;23154;52.542;13.362;2022-12-10T12:28:42;-0.50;99.90
37268;DHT22;23154;52.542;13.362;2022-12-10T12:31:10;-0.30;99.90
37268;DHT22;23154;52.542;13.362;2022-12-10T12:33:59;-0.40;99.90
37268;DHT22;23154;52.542;13.362;2022-12-10T12:36:26;-0.40;99.90
37268;DHT22;23154;52.542;13.362;2022-12-10T12:39:10;-0.40;99.90
37268;DHT22;23154;52.542;13.362;2022-12-10T12:46:45;-0.40;99.90
37268;DHT22;23154;52.542;13.362;2022-12-10T12:51:48;-0.50;99.90
37268;DHT22;23154;52.542;13.362;2022-12-10T12:54:15;-0.60;99.90
37268;DHT22;23154;52.542;13.362;2022-12-10T13:02:17;-0.60;99.90
37268;DHT22;23154;52.542;13.362;2022-12-10T13:04:45;-0.60;99.90
37268;DHT22;23154;52.542;13.362;2022-12-10T13:10:23;-0.50;99.90
37268;DHT22;23154;52.542;13.362;2022-12-10T13:12:31;-0.50;99.90
37268;DHT22;23154;52.542;13.362;2022-12-10T13:15:01;-0.60;99.90
37268;DHT22;23154;52.542;13.362;2022-12-10T13:17:30;-0.50;99.90
37268;DHT22;23154;52.542;13.362;2022-12-10T13:22:41;-0.50;99.90
37268;DHT22;23154;52.542;13.362;2022-12-10T13:27:36;-0.50;99.90
37268;DHT22;23154;52.542;13.362;2022-12-10T13:42:37;-0.50;99.90
37268;DHT22;23154;52.542;13.362;2022-12-10T13:50:16;-0.70;99.90
37268;DHT22;23154;52.542;13.362;2022-12-10T13:53:07;-0.60;99.90
37268;DHT22;23154;52.542;13.362;2022-12-10T13:55:39;-0.70;99.90
37268;DHT22;23154;52.542;13.362;2022-12-10T14:00:41;-0.70;99.90
37268;DHT22;23154;52.542;13.362;2022-12-10T14:08:12;-0.70;99.90
37268;DHT22;23154;52.542;13.362;2022-12-10T14:10:38;-0.70;99.90
37268;DHT22;23154;52.542;13.362;2022-12-10T14:13:06;-0.70;99.90
37268;DHT22;23154;52.542;13.362;2022-12-10T14:15:31;-0.70;99.90
37268;DHT22;23154;52.542;13.362;2022-12-10T14:18:00;-0.70;99.90
37268;DHT22;23154;52.542;13.362;2022-12-10T14:20:27;-0.70;99.90
37268;DHT22;23154;52.542;13.362;2022-12-10T14:22:55;-0.70;99.90
37268;DHT22;23154;52.542;13.362;2022-12-10T14:25:41;-0.70;99.90
37268;DHT22;23154;52.542;13.362;2022-12-10T14:28:11;-0.70;99.90
37268;DHT22;23154;52.542;13.362;2022-12-10T14:30:37;-0.80;99.90
37268;DHT22;23154;52.542;13.362;2022-12-10T14:33:07;-0.90;99.90
37268;DHT22;23154;52.542;13.362;2022-12-10T14:35:35;-0.80;99.90
37268;DHT22;23154;52.542;13.362;2022-12-10T14:38:01;-0.80;99.90
37268;DHT22;23154;52.542;13.362;2022-12-10T14:40:37;-0.80;99.90
37268;DHT22;23154;52.542;13.362;2022-12-10T14:43:14;-0.80;99.90
37268;DHT22;23154;52.542;13.362;2022-12-10T14:45:45;-0.80;99.90
37268;DHT22;23154;52.542;13.362;2022-12-10T14:48:12;-0.80;99.90
37268;DHT22;23154;52.542;13.362;2022-12-10T14:50:37;-0.90;99.90
37268;DHT22;23154;52.542;13.362;2022-12-10T14:53:04;-0.90;99.90
37268;DHT22;23154;52.542;13.362;2022-12-10T14:55:30;-0.80;99.90
37268;DHT22;23154;52.542;13.362;2022-12-10T14:58:00;-0.80;99.90
37268;DHT22;23154;52.542;13.362;2022-12-10T15:00:27;-0.80;99.90
37268;DHT22;23154;52.542;13.362;2022-12-10T15:02:53;-0.80;99.90
37268;DHT22;23154;52.542;13.362;2022-12-10T15:05:21;-0.90;99.90
37268;DHT22;23154;52.542;13.362;2022-12-10T15:07:50;-0.90;99.90
37268;DHT22;23154;52.542;13.362;2022-12-10T15:10:18;-0.90;99.90
37268;DHT22;23154;52.542;13.362;2022-12-10T15:12:47;-0.90;99.90
37268;DHT22;23154;52.542;13.362;2022-12-10T15:15:56;-0.90;99.90
37268;DHT22;23154;52.542;13.362;2022-12-10T15:18:07;-0.90;99.90
37268;DHT22;23154;52.542;13.362;2022-12-10T15:23:15;-0.90;99.90
37268;DHT22;23154;52.542;13.362;2022-12-10T15:28:27;-0.90;99.90
37268;DHT22;23154;52.542;13.362;2022-12-10T15:30:56;-0.90;99.90
37268;DHT22;23154;52.542;13.362;2022-12-10T15:35:48;-0.90;99.90
37268;DHT22;23154;52.542;13.362;2022-12-10T15:38:14;-0.90;99.90
37268;DHT22;23154;52.542;13.362;2022-12-10T15:40:39;-0.90;99.90
37268;DHT22;23154;52.542;13.362;2022-12-10T15:46:00;-0.80;99.90
37268;DHT22;23154;52.542;13.362;2022-12-10T15:48:27;-0.80;99.90
37268;DHT22;23154;52.542;13.362;2022-12-10T15:50:53;-0.80;99.90
37268;DHT22;23154;52.542;13.362;2022-12-10T15:53:26;-0.80;99.90
37268;DHT22;23154;52.542;13.362;2022-12-10T15:55:52;-0.80;99.90
37268;DHT22;23154;52.542;13.362;2022-12-10T15:58:17;-0.80;99.90
37268;DHT22;23154;52.542;13.362;2022-12-10T16:00:43;-0.80;99.90
37268;DHT22;23154;52.542;13.362;2022-12-10T16:03:10;-0.80;99.90
37268;DHT22;23154;52.542;13.362;2022-12-10T16:05:37;-0.80;99.90
37268;DHT22;23154;52.542;13.362;2022-12-10T16:08:18;-0.90;99.90
37268;DHT22;23154;52.542;13.362;2022-12-10T16:10:44;-0.80;99.90
37268;DHT22;23154;52.542;13.362;2022-12-10T16:13:15;-0.80;99.90
37268;DHT22;23154;52.542;13.362;2022-12-10T16:16:00;-0.90;99.90
37268;DHT22;23154;52.542;13.362;2022-12-10T16:18:26;-0.90;99.90
37268;DHT22;23154;52.542;13.362;2022-12-10T16:20:52;-0.90;99.90
37268;DHT22;23154;52.542;13.362;2022-12-10T16:23:17;-0.90;99.90
37268;DHT22;23154;52.542;13.362;2022-12-10T16:25:43;-0.80;99.90
37268;DHT22;23154;52.542;13.362;2022-12-10T16:28:13;-0.90;99.90
37268;DHT22;23154;52.542;13.362;2022-12-10T16:30:46;-1.00;99.90
37268;DHT22;23154;52.542;13.362;2022-12-10T16:33:17;-0.90;99.90
37268;DHT22;23154;52.542;13.362;2022-12-10T16:35:46;-0.90;99.90
37268;DHT22;23154;52.542;13.362;2022-12-10T16:38:12;-0.90;99.90
37268;DHT22;23154;52.542;13.362;2022-12-10T16:40:39;-0.90;99.90
37268;DHT22;23154;52.542;13.362;2022-12-10T16:43:05;-0.90;99.90
37268;DHT22;23154;52.542;13.362;2022-12-10T16:45:35;-0.80;99.90
37268;DHT22;23154;52.542;13.362;2022-12-10T16:48:02;-0.90;99.90
37268;DHT22;23154;52.542;13.362;2022-12-10T16:50:28;-0.90;99.90
37268;DHT22;23154;52.542;13.362;2022-12-10T16:52:54;-0.90;99.90
37268;DHT22;23154;52.542;13.362;2022-12-10T16:55:20;-1.00;99.90
37268;DHT22;23154;52.542;13.362;2022-12-10T16:57:47;-0.90;99.90
37268;DHT22;23154;52.542;13.362;2022-12-10T17:00:15;-1.00;99.90
37268;DHT22;23154;52.542;13.362;2022-12-10T17:02:41;-0.90;99.90
37268;DHT22;23154;52.542;13.362;2022-12-10T17:05:17;-0.90;99.90
37268;DHT22;23154;52.542;13.362;2022-12-10T17:07:45;-0.90;99.90
37268;DHT22;23154;52.542;13.362;2022-12-10T17:10:12;-0.90;99.90
37268;DHT22;23154;52.542;13.362;2022-12-10T17:12:38;-0.90;99.90
37268;DHT22;23154;52.542;13.362;2022-12-10T17:15:04;-1.00;99.90
37268;DHT22;23154;52.542;13.362;2022-12-10T17:17:30;-0.90;99.90